Oldtown, NC

3:33 AM EDT on August 31, 2015 (GMT -0400)
Sunny Dell Lakes | | Change Station
CLOSE
Current Station
Personal Weather Station
Location: Winston-Salem, NC
Elevation: 774 ft
Nearby Weather Stations

Elev 774 ft 36.14 °N, 80.33 °W | Updated 2 seconds ago

Rain
Rain
68.8 °F
Feels Like 68.8 °F
N
0.0
Wind Variable Wind from East
Gusts 0.0 mph

Today
High -- | Low -- °F
--% Chance of Precip.
Yesterday
High -- | Low -- °F
Precip. -- in
6:51 AM 7:50 PM
Waning Gibbous, 96% visible
Pressure 30.14 in
Visibility 8.0 miles
Clouds Mostly Cloudy 2800 ft
Overcast 3900 ft
Dew Point 67 °F
Humidity 94%
Rainfall 0.02 in
Snow Depth Not available.
UV 0.0 out of 12
Pollen 8.30 out of 12
Air Quality Not available.
Flu Activity Not available.
METAR KINT 310719Z AUTO 00000KT 8SM -RA BKN028 OVC039 21/18 A3014 RMK AO2 P0001 T02060178
Pressure 30.14 in
Visibility 8.0 miles
Clouds Mostly Cloudy 2800 ft
Overcast 3900 ft
Dew Point 67 °F
Humidity 94%
Rainfall 0.02 in
Snow Depth Not available.
UV 0.0 out of 12
Pollen 8.30 out of 12
Air Quality Not available.
Flu Activity Not available.
METAR KINT 310719Z AUTO 00000KT 8SM -RA BKN028 OVC039 21/18 A3014 RMK AO2 P0001 T02060178

10-Day Weather Forecast

×

Almanac

Astronomy

Aug. 31, 2015 Rise Set
Actual Time
Civil Twilight
Nautical Twilight
Astronomical Twilight
Moon
Length of Visible Light
Length of Day
Tomorrow will be .
, % of the Moon is Illuminated

Today's Extremes

State Highs State Lows

Community

WunderPhotos

Upload Photos

1,851,220 photos uploaded!

WunderBlogs® & News

Nearby

Air Quality

  Air Quality AQ Index Pollutant
Not available.

Snow Depth

Station Depth Elevation

Earthquake Activity

City Distance Mag. Time & Date
Minimum magnitude displayed is 2.5.

Coastal Water Temperatures

Place Temperature

Stations

Nearby Weather Stations

Station Location Temp. Windchill Dew Point Humidity Wind Precip. Elev Updated Type